Island Escape — C6SK4 — position and weather

sailwx.info

Track history (hours):
 
Tides and Currents Weather Stations Pressure Air Temp Water Temp Dewpoint Dewpoint Depression Visibility Wind Speed Wind Dir Waves Ship Positions

Island Escape

Operator: V Ships Leisure SAM

Last reported at 2014-Nov-02 02:32 UTC. Time now 2014-Dec-18 16:23 UTC.
Position N 35°59' W 005°33'.
Warning: this ship's position is 46 days out of date.

Length 185 m; draft 7.3 m.

Type: Passenger vessel. MMSI: 311368000.

Date/timePositionNaut miles runAvg speedWind from/ knotsBaromVisibWave heightAir tempDewpointWater temp
2014-Nov-02 02:32N 35°59' W 005°33'1010.2
2014-Nov-02 01:33N 36°05' W 005°23'2 1.7
2014-Nov-02 00:23N 36°07' W 005°22'0 0.0
2014-Nov-01 23:29N 36°07' W 005°22'0 0.0
2014-Nov-01 22:32N 36°07' W 005°22'0 0.0
2014-Nov-01 21:29N 36°07' W 005°22'5 2.8
2014-Nov-01 19:33N 36°07' W 005°15'3 2.3
2014-Nov-01 18:15N 36°07' W 005°11'1 1.1
2014-Nov-01 17:29N 36°07' W 005°10'2 1.5
2014-Nov-01 16:23N 36°07' W 005°08'1 1.4
2014-Nov-01 15:33N 36°07' W 005°07'7 6.6
2014-Nov-01 14:31N 36°09' W 005°15'0 0.2
2014-Nov-01 13:19N 36°09' W 005°15'1 1.3
2014-Nov-01 12:34N 36°09' W 005°13'1 1.4
2014-Nov-01 11:33N 36°09' W 005°12'1 1.2
2014-Nov-01 10:33N 36°08' W 005°10'1 1.1
2014-Nov-01 09:33N 36°08' W 005°09'2 1.2
2014-Nov-01 08:04N 36°08' W 005°07'2 0.8
2014-Nov-01 05:15N 36°10' W 005°08'2 2.3
2014-Nov-01 04:33N 36°11' W 005°09'21210.4
2014-Oct-31 08:09N 37°06' W 000°53'1011.2
2014-Oct-31 07:15N 37°12' W 000°43'17910.7
2014-Oct-30 14:33N 39°04' E 002°16'1211.4
2014-Oct-30 13:32N 39°13' E 002°24'1212.0
2014-Oct-30 12:33N 39°22' E 002°35'1111.3
2014-Oct-30 11:33N 39°32' E 002°39'1 1.3
2014-Oct-30 10:32N 39°33' E 002°38'0 0.0
2014-Oct-30 09:32N 39°33' E 002°38'0 0.0
2014-Oct-30 08:33N 39°33' E 002°38'0 0.0
2014-Oct-30 07:33N 39°33' E 002°38'0 0.0
2014-Oct-30 06:29N 39°33' E 002°38'0 0.0
2014-Oct-30 05:33N 39°33' E 002°38'0 0.0
2014-Oct-30 04:33N 39°33' E 002°38'0 0.0
2014-Oct-30 03:30N 39°33' E 002°38'0 0.0
2014-Oct-30 02:33N 39°33' E 002°38'0 0.0
2014-Oct-30 01:33N 39°33' E 002°38'0 0.0
2014-Oct-30 00:33N 39°33' E 002°38'0 0.0
2014-Oct-29 23:33N 39°33' E 002°38'0 0.0
2014-Oct-29 22:33N 39°33' E 002°38'0 0.0
2014-Oct-29 21:33N 39°33' E 002°38'0 0.0
2014-Oct-29 20:33N 39°33' E 002°38'0 0.0
2014-Oct-29 19:33N 39°33' E 002°38'0 0.0
2014-Oct-29 18:33N 39°33' E 002°38'0 0.0
2014-Oct-29 17:33N 39°33' E 002°38'0 0.0
2014-Oct-29 16:33N 39°33' E 002°38'0 0.0
2014-Oct-29 15:33N 39°33' E 002°38'0 0.0
2014-Oct-29 14:33N 39°33' E 002°38'0 0.0
2014-Oct-29 13:33N 39°33' E 002°38'0 0.0
2014-Oct-29 12:33N 39°33' E 002°38'0 0.0
2014-Oct-29 11:33N 39°33' E 002°38'0 0.0
2014-Oct-29 10:33N 39°33' E 002°38'0 0.0
2014-Oct-29 09:33N 39°33' E 002°38'0 0.0
2014-Oct-29 08:33N 39°33' E 002°38'0 0.0
2014-Oct-29 07:33N 39°33' E 002°38'0 0.0
2014-Oct-29 06:33N 39°33' E 002°38'0 0.0
2014-Oct-29 05:33N 39°33' E 002°38'0 0.0
2014-Oct-29 04:33N 39°33' E 002°38'0 0.0
2014-Oct-29 03:33N 39°33' E 002°38'0 0.0
2014-Oct-29 02:33N 39°33' E 002°38'0 0.0
2014-Oct-29 01:33N 39°33' E 002°38'0 0.0
2014-Oct-29 00:33N 39°33' E 002°38'0 0.0
2014-Oct-28 23:33N 39°33' E 002°38'0 0.0
2014-Oct-28 22:33N 39°33' E 002°38'0 0.0
2014-Oct-28 21:33N 39°33' E 002°38'0 0.0
2014-Oct-28 20:33N 39°33' E 002°38'0 0.0
2014-Oct-28 19:33N 39°33' E 002°38'0 0.0
2014-Oct-28 18:33N 39°33' E 002°38'0 0.0
2014-Oct-28 17:33N 39°33' E 002°38'0 0.0
2014-Oct-28 16:33N 39°33' E 002°38'0 0.0
2014-Oct-28 15:33N 39°33' E 002°38'0 0.0
2014-Oct-28 14:33N 39°33' E 002°38'0 0.0
2014-Oct-28 13:33N 39°33' E 002°38'0 0.0
2014-Oct-28 12:33N 39°33' E 002°38'0 0.0
2014-Oct-28 11:33N 39°33' E 002°38'0 0.0
2014-Oct-28 10:33N 39°33' E 002°38'0 0.0
2014-Oct-28 09:33N 39°33' E 002°38'0 0.0
2014-Oct-28 08:33N 39°33' E 002°38'0 0.0
2014-Oct-28 07:33N 39°33' E 002°38'0 0.0
2014-Oct-28 06:33N 39°33' E 002°38'0 0.0
2014-Oct-28 05:33N 39°33' E 002°38'0 0.2
2014-Oct-28 04:33N 39°33' E 002°38'8 8.2
2014-Oct-28 03:33N 39°25' E 002°35'1312.9
2014-Oct-28 02:33N 39°13' E 002°32'1514.7
2014-Oct-28 01:34N 38°60' E 002°41'1414.4
2014-Oct-28 00:33N 38°53' E 002°58'1413.6
2014-Oct-27 23:34N 39°01' E 003°12'1414.4
2014-Oct-27 22:33N 39°10' E 003°26'1714.1
2014-Oct-27 21:23N 39°21' E 003°43'336 8.0
2014-Oct-26 03:30N 43°05' E 009°15'1414.4
2014-Oct-26 02:31N 43°03' E 009°34'1515.6
2014-Oct-26 01:33N 42°52' E 009°48'1915.2
2014-Oct-26 00:17N 42°40' E 010°09'147 4.6
2014-Oct-24 16:29N 41°32' E 007°13'7517.3
2014-Oct-24 12:07N 41°41' E 005°33'1616.9
2014-Oct-24 11:12N 41°43' E 005°12'1317.5
2014-Oct-24 10:29N 41°45' E 004°56'2018.0
2014-Oct-24 09:22N 41°49' E 004°29'1516.5
2014-Oct-24 08:29N 41°46' E 004°11'20314.5
2014-Oct-23 18:27N 39°57' E 000°23'1517.1
2014-Oct-23 17:33N 39°46' E 000°11'1616.2
2014-Oct-23 16:33N 39°34' W 000°04'1413.7
2014-Oct-23 15:33N 39°27' W 000°19'1 1.0
2014-Oct-23 14:33N 39°27' W 000°20'0 0.0
2014-Oct-23 13:33N 39°27' W 000°20'0 0.0
2014-Oct-23 12:30N 39°27' W 000°20'0 0.0
2014-Oct-23 11:33N 39°27' W 000°20'0 0.0
2014-Oct-23 10:33N 39°27' W 000°20'0 0.0
2014-Oct-23 09:33N 39°27' W 000°20'0 0.0
2014-Oct-23 08:30N 39°27' W 000°20'0 0.0
2014-Oct-23 07:33N 39°27' W 000°20'0 0.0
2014-Oct-23 06:33N 39°27' W 000°19'0 0.1
2014-Oct-23 05:33N 39°27' W 000°19'7 6.8
2014-Oct-23 04:33N 39°27' W 000°11'  
Track history (hours):
 
Tides and Currents Weather Stations Pressure Air Temp Water Temp Dewpoint Dewpoint Depression Visibility Wind Speed Wind Dir Waves Ship Positions

Island Escape

Operator: V Ships Leisure SAM

Last reported at 2014-Nov-02 02:32 UTC. Time now 2014-Dec-18 16:23 UTC.
Position N 35°59' W 005°33'.
Warning: this ship's position is 46 days out of date.

Length 185 m; draft 7.3 m.

Type: Passenger vessel. MMSI: 311368000.

Date/timePositionNaut miles runAvg speedWind from/ knotsBaromVisibWave heightAir tempDewpointWater temp
2014-Nov-02 02:32N 35°59' W 005°33'1010.2
2014-Nov-02 01:33N 36°05' W 005°23'2 1.7
2014-Nov-02 00:23N 36°07' W 005°22'0 0.0
2014-Nov-01 23:29N 36°07' W 005°22'0 0.0
2014-Nov-01 22:32N 36°07' W 005°22'0 0.0
2014-Nov-01 21:29N 36°07' W 005°22'5 2.8
2014-Nov-01 19:33N 36°07' W 005°15'3 2.3
2014-Nov-01 18:15N 36°07' W 005°11'1 1.1
2014-Nov-01 17:29N 36°07' W 005°10'2 1.5
2014-Nov-01 16:23N 36°07' W 005°08'1 1.4
2014-Nov-01 15:33N 36°07' W 005°07'7 6.6
2014-Nov-01 14:31N 36°09' W 005°15'0 0.2
2014-Nov-01 13:19N 36°09' W 005°15'1 1.3
2014-Nov-01 12:34N 36°09' W 005°13'1 1.4
2014-Nov-01 11:33N 36°09' W 005°12'1 1.2
2014-Nov-01 10:33N 36°08' W 005°10'1 1.1
2014-Nov-01 09:33N 36°08' W 005°09'2 1.2
2014-Nov-01 08:04N 36°08' W 005°07'2 0.8
2014-Nov-01 05:15N 36°10' W 005°08'2 2.3
2014-Nov-01 04:33N 36°11' W 005°09'21210.4
2014-Oct-31 08:09N 37°06' W 000°53'1011.2
2014-Oct-31 07:15N 37°12' W 000°43'17910.7
2014-Oct-30 14:33N 39°04' E 002°16'1211.4
2014-Oct-30 13:32N 39°13' E 002°24'1212.0
2014-Oct-30 12:33N 39°22' E 002°35'1111.3
2014-Oct-30 11:33N 39°32' E 002°39'1 1.3
2014-Oct-30 10:32N 39°33' E 002°38'0 0.0
2014-Oct-30 09:32N 39°33' E 002°38'0 0.0
2014-Oct-30 08:33N 39°33' E 002°38'0 0.0
2014-Oct-30 07:33N 39°33' E 002°38'0 0.0
2014-Oct-30 06:29N 39°33' E 002°38'0 0.0
2014-Oct-30 05:33N 39°33' E 002°38'0 0.0
2014-Oct-30 04:33N 39°33' E 002°38'0 0.0
2014-Oct-30 03:30N 39°33' E 002°38'0 0.0
2014-Oct-30 02:33N 39°33' E 002°38'0 0.0
2014-Oct-30 01:33N 39°33' E 002°38'0 0.0
2014-Oct-30 00:33N 39°33' E 002°38'0 0.0
2014-Oct-29 23:33N 39°33' E 002°38'0 0.0
2014-Oct-29 22:33N 39°33' E 002°38'0 0.0
2014-Oct-29 21:33N 39°33' E 002°38'0 0.0
2014-Oct-29 20:33N 39°33' E 002°38'0 0.0
2014-Oct-29 19:33N 39°33' E 002°38'0 0.0
2014-Oct-29 18:33N 39°33' E 002°38'0 0.0
2014-Oct-29 17:33N 39°33' E 002°38'0 0.0
2014-Oct-29 16:33N 39°33' E 002°38'0 0.0
2014-Oct-29 15:33N 39°33' E 002°38'0 0.0
2014-Oct-29 14:33N 39°33' E 002°38'0 0.0
2014-Oct-29 13:33N 39°33' E 002°38'0 0.0
2014-Oct-29 12:33N 39°33' E 002°38'0 0.0
2014-Oct-29 11:33N 39°33' E 002°38'0 0.0
2014-Oct-29 10:33N 39°33' E 002°38'0 0.0
2014-Oct-29 09:33N 39°33' E 002°38'0 0.0
2014-Oct-29 08:33N 39°33' E 002°38'0 0.0
2014-Oct-29 07:33N 39°33' E 002°38'0 0.0
2014-Oct-29 06:33N 39°33' E 002°38'0 0.0
2014-Oct-29 05:33N 39°33' E 002°38'0 0.0
2014-Oct-29 04:33N 39°33' E 002°38'0 0.0
2014-Oct-29 03:33N 39°33' E 002°38'0 0.0
2014-Oct-29 02:33N 39°33' E 002°38'0 0.0
2014-Oct-29 01:33N 39°33' E 002°38'0 0.0
2014-Oct-29 00:33N 39°33' E 002°38'0 0.0
2014-Oct-28 23:33N 39°33' E 002°38'0 0.0
2014-Oct-28 22:33N 39°33' E 002°38'0 0.0
2014-Oct-28 21:33N 39°33' E 002°38'0 0.0
2014-Oct-28 20:33N 39°33' E 002°38'0 0.0
2014-Oct-28 19:33N 39°33' E 002°38'0 0.0
2014-Oct-28 18:33N 39°33' E 002°38'0 0.0
2014-Oct-28 17:33N 39°33' E 002°38'0 0.0
2014-Oct-28 16:33N 39°33' E 002°38'0 0.0
2014-Oct-28 15:33N 39°33' E 002°38'0 0.0
2014-Oct-28 14:33N 39°33' E 002°38'0 0.0
2014-Oct-28 13:33N 39°33' E 002°38'0 0.0
2014-Oct-28 12:33N 39°33' E 002°38'0 0.0
2014-Oct-28 11:33N 39°33' E 002°38'0 0.0
2014-Oct-28 10:33N 39°33' E 002°38'0 0.0
2014-Oct-28 09:33N 39°33' E 002°38'0 0.0
2014-Oct-28 08:33N 39°33' E 002°38'0 0.0
2014-Oct-28 07:33N 39°33' E 002°38'0 0.0
2014-Oct-28 06:33N 39°33' E 002°38'0 0.0
2014-Oct-28 05:33N 39°33' E 002°38'0 0.2
2014-Oct-28 04:33N 39°33' E 002°38'8 8.2
2014-Oct-28 03:33N 39°25' E 002°35'1312.9
2014-Oct-28 02:33N 39°13' E 002°32'1514.7
2014-Oct-28 01:34N 38°60' E 002°41'1414.4
2014-Oct-28 00:33N 38°53' E 002°58'1413.6
2014-Oct-27 23:34N 39°01' E 003°12'1414.4
2014-Oct-27 22:33N 39°10' E 003°26'1714.1
2014-Oct-27 21:23N 39°21' E 003°43'336 8.0
2014-Oct-26 03:30N 43°05' E 009°15'1414.4
2014-Oct-26 02:31N 43°03' E 009°34'1515.6
2014-Oct-26 01:33N 42°52' E 009°48'1915.2
2014-Oct-26 00:17N 42°40' E 010°09'147 4.6
2014-Oct-24 16:29N 41°32' E 007°13'7517.3
2014-Oct-24 12:07N 41°41' E 005°33'1616.9
2014-Oct-24 11:12N 41°43' E 005°12'1317.5
2014-Oct-24 10:29N 41°45' E 004°56'2018.0
2014-Oct-24 09:22N 41°49' E 004°29'1516.5
2014-Oct-24 08:29N 41°46' E 004°11'20314.5
2014-Oct-23 18:27N 39°57' E 000°23'1517.1
2014-Oct-23 17:33N 39°46' E 000°11'1616.2
2014-Oct-23 16:33N 39°34' W 000°04'1413.7
2014-Oct-23 15:33N 39°27' W 000°19'1 1.0
2014-Oct-23 14:33N 39°27' W 000°20'0 0.0
2014-Oct-23 13:33N 39°27' W 000°20'0 0.0
2014-Oct-23 12:30N 39°27' W 000°20'0 0.0
2014-Oct-23 11:33N 39°27' W 000°20'0 0.0
2014-Oct-23 10:33N 39°27' W 000°20'0 0.0
2014-Oct-23 09:33N 39°27' W 000°20'0 0.0
2014-Oct-23 08:30N 39°27' W 000°20'0 0.0
2014-Oct-23 07:33N 39°27' W 000°20'0 0.0
2014-Oct-23 06:33N 39°27' W 000°19'0 0.1
2014-Oct-23 05:33N 39°27' W 000°19'7 6.8
2014-Oct-23 04:33N 39°27' W 000°11'  

Dump ship's entire track history